Time;durP1;ratioP1;P1;durP2;ratioP2;P2;SDS_P1;SDS_P2;PMS_P1;PMS_P2;Temp;Humidity;BMP_temperature;BMP_pressure;BME280_temperature;BME280_humidity;BME280_pressure;Samples;Min_cycle;Max_cycle;Signal;HPM_P1;HPM_P2
2023/03/09 00:05:20;;;;;;;41.47;28.10;;;6.20;99.90;;;;;;5001604;28;20391;-86
2023/03/09 00:10:15;;;;;;;40.30;25.70;;;6.20;99.90;;;;;;5011699;28;20201;-88
2023/03/09 00:15:24;;;;;;;39.45;27.65;;;5.90;99.90;;;;;;5759635;23;20202;-88
2023/03/09 00:44:50;;;;;;;46.60;33.00;;;5.20;99.90;;;;;;4970651;28;20439;-88
2023/03/09 00:47:29;;;;;;;44.75;31.90;;;5.50;99.90;;;;;;4982466;28;20518;-88
2023/03/09 01:14:11;;;;;;;46.45;33.53;;;5.80;99.90;;;;;;5867225;23;20786;-90
2023/03/09 01:16:40;;;;;;;48.13;30.50;;;5.90;99.90;;;;;;5024341;28;20221;-88
2023/03/09 01:19:25;;;;;;;47.70;31.33;;;5.90;99.90;;;;;;5047620;23;20209;-90
2023/03/09 01:40:53;;;;;;;42.15;28.85;;;5.00;99.90;;;;;;5353048;23;20241;-88
2023/03/09 01:46:24;;;;;;;53.50;34.00;;;4.90;99.90;;;;;;5650341;23;20251;-90
2023/03/09 01:49:04;;;;;;;60.65;34.08;;;4.80;99.90;;;;;;5183449;22;20285;-87
2023/03/09 01:51:51;;;;;;;46.53;33.58;;;4.70;99.90;;;;;;5024126;23;20251;-87
2023/03/09 02:34:37;;;;;;;56.22;35.70;;;4.40;99.90;;;;;;4995395;28;20282;-87
2023/03/09 02:37:27;;;;;;;61.30;35.70;;;4.60;99.90;;;;;;5010264;28;20471;-89
2023/03/09 02:40:18;;;;;;;64.28;37.28;;;4.70;99.90;;;;;;5081699;22;20249;-88
2023/03/09 02:42:47;;;;;;;65.63;37.38;;;4.60;99.90;;;;;;4986569;28;20222;-88
2023/03/09 02:48:00;;;;;;;59.95;35.60;;;4.80;99.90;;;;;;5190540;23;20224;-87
2023/03/09 02:50:28;;;;;;;62.15;35.40;;;4.80;99.90;;;;;;5013921;28;20186;-87
2023/03/09 02:52:55;;;;;;;53.67;31.83;;;4.80;99.90;;;;;;5009480;28;20236;-89
2023/03/09 02:55:24;;;;;;;52.67;33.45;;;4.90;99.90;;;;;;5001366;28;20402;-89
2023/03/09 02:57:51;;;;;;;45.17;31.23;;;4.90;99.90;;;;;;5002008;28;20205;-90
2023/03/09 03:00:23;;;;;;;46.60;30.77;;;4.50;99.90;;;;;;5140945;23;20270;-88
2023/03/09 03:02:50;;;;;;;48.03;30.85;;;4.40;99.90;;;;;;5019159;28;20259;-87
2023/03/09 03:05:17;;;;;;;56.95;32.22;;;4.40;99.90;;;;;;5011758;28;20220;-89
2023/03/09 03:07:47;;;;;;;59.08;34.17;;;4.30;99.90;;;;;;5026624;28;20258;-89
2023/03/09 03:10:16;;;;;;;55.45;32.05;;;4.30;99.90;;;;;;5011454;28;20619;-89
2023/03/09 03:12:45;;;;;;;56.28;34.83;;;4.20;99.90;;;;;;5004441;28;20278;-90
2023/03/09 03:17:55;;;;;;;60.25;35.38;;;4.40;99.90;;;;;;5680372;23;20479;-88
2023/03/09 04:03:30;;;;;;;58.60;35.28;;;4.10;99.90;;;;;;4963890;28;20286;-89
2023/03/09 04:06:00;;;;;;;59.80;34.63;;;4.10;99.90;;;;;;4963778;28;20218;-89
2023/03/09 04:08:31;;;;;;;57.50;32.63;;;4.10;99.90;;;;;;4964914;28;20246;-90
2023/03/09 04:11:11;;;;;;;63.22;36.08;;;4.10;99.90;;;;;;4978310;28;20250;-88
2023/03/09 04:13:42;;;;;;;68.43;38.80;;;4.20;99.90;;;;;;4977935;28;20198;-89
2023/03/09 04:16:29;;;;;;;68.20;36.20;;;4.00;99.90;;;;;;4983000;28;20202;-88
2023/03/09 04:19:21;;;;;;;59.95;36.20;;;4.00;99.90;;;;;;4970958;28;20226;-88
2023/03/09 04:21:49;;;;;;;64.18;36.13;;;4.00;99.90;;;;;;4975798;28;20238;-89
2023/03/09 04:24:24;;;;;;;65.07;37.42;;;3.90;99.90;;;;;;4948304;29;20241;-89
2023/03/09 04:32:03;;;;;;;67.63;37.33;;;3.70;99.90;;;;;;5003173;28;20284;-90
2023/03/09 04:34:33;;;;;;;67.00;35.67;;;3.70;99.90;;;;;;5004417;28;20451;-88
2023/03/09 04:37:01;;;;;;;64.88;35.67;;;3.70;99.90;;;;;;5002716;28;20200;-88
2023/03/09 04:39:30;;;;;;;60.28;33.67;;;3.70;99.90;;;;;;5019440;28;20259;-89
2023/03/09 04:41:57;;;;;;;68.65;35.20;;;3.70;99.90;;;;;;5024523;28;20248;-88
2023/03/09 04:44:36;;;;;;;74.57;35.10;;;3.70;99.90;;;;;;5003408;28;20212;-88
2023/03/09 04:47:13;;;;;;;79.60;38.00;;;3.80;99.90;;;;;;5099484;23;20239;-88
2023/03/09 04:49:40;;;;;;;61.35;33.60;;;3.80;99.90;;;;;;5007088;28;20252;-86
2023/03/09 04:52:18;;;;;;;78.10;38.00;;;3.80;99.90;;;;;;5005304;28;20205;-88
2023/03/09 04:54:50;;;;;;;68.30;35.95;;;3.60;99.90;;;;;;5003141;28;20265;-90
2023/03/09 05:05:09;;;;;;;68.78;32.95;;;3.70;99.90;;;;;;4984819;28;20220;-90
2023/03/09 05:07:37;;;;;;;63.35;35.35;;;3.80;99.90;;;;;;4975706;28;20202;-88
2023/03/09 05:10:04;;;;;;;68.32;37.38;;;3.70;99.90;;;;;;4977334;28;20193;-86
2023/03/09 05:12:31;;;;;;;67.68;36.78;;;3.60;99.90;;;;;;4965705;28;20234;-87
2023/03/09 05:15:08;;;;;;;70.00;37.53;;;3.60;99.90;;;;;;4969918;28;20209;-88
2023/03/09 05:17:36;;;;;;;67.80;35.85;;;3.70;99.90;;;;;;4969976;28;20215;-87
2023/03/09 05:20:11;;;;;;;70.38;36.90;;;3.70;99.90;;;;;;4970707;28;20210;-84
2023/03/09 05:22:38;;;;;;;65.32;36.15;;;3.70;99.90;;;;;;4994745;28;20223;-88
2023/03/09 05:25:06;;;;;;;75.43;38.70;;;3.60;99.90;;;;;;4975495;28;20210;-87
2023/03/09 05:27:33;;;;;;;78.88;39.53;;;3.50;99.90;;;;;;4990845;28;20217;-88
2023/03/09 05:30:01;;;;;;;74.47;40.90;;;3.50;99.90;;;;;;4970037;28;20298;-88
2023/03/09 05:32:29;;;;;;;61.13;34.53;;;3.50;99.90;;;;;;4974156;28;20209;-86
2023/03/09 05:34:59;;;;;;;82.45;38.05;;;3.60;99.90;;;;;;4967060;28;20229;-89
2023/03/09 05:37:27;;;;;;;58.90;34.97;;;3.60;99.90;;;;;;4981323;28;20509;-88
2023/03/09 05:39:54;;;;;;;67.88;33.60;;;3.60;99.90;;;;;;4981735;28;20489;-86
2023/03/09 05:42:21;;;;;;;74.18;36.83;;;3.60;99.90;;;;;;4975644;28;20225;-90
2023/03/09 05:44:49;;;;;;;57.70;30.20;;;3.50;99.90;;;;;;5320232;23;20298;-88
2023/03/09 05:47:17;;;;;;;60.70;30.63;;;3.50;99.90;;;;;;5091054;23;20311;-89
2023/03/09 05:49:44;;;;;;;65.47;33.30;;;3.40;99.90;;;;;;5004080;28;20204;-89
2023/03/09 05:52:11;;;;;;;50.65;29.33;;;3.50;99.90;;;;;;5009878;28;20216;-87
2023/03/09 05:55:03;;;;;;;57.10;31.40;;;3.50;99.90;;;;;;5014528;28;20204;-86
2023/03/09 05:57:56;;;;;;;56.50;29.35;;;3.60;99.90;;;;;;4916663;29;20208;-87
2023/03/09 06:00:24;;;;;;;63.92;33.05;;;3.50;99.90;;;;;;4925827;29;20208;-87
2023/03/09 06:02:51;;;;;;;67.72;33.80;;;3.50;99.90;;;;;;4925679;29;20247;-86
2023/03/09 06:05:18;;;;;;;56.25;29.85;;;3.60;99.90;;;;;;4936499;29;20226;-86
2023/03/09 06:07:45;;;;;;;54.42;30.08;;;3.50;99.90;;;;;;4935687;29;20198;-87
2023/03/09 06:10:15;;;;;;;55.30;31.92;;;3.40;99.90;;;;;;5145481;23;20247;-87
2023/03/09 06:12:43;;;;;;;57.63;28.25;;;3.50;99.90;;;;;;5004227;28;20377;-87
2023/03/09 06:15:14;;;;;;;48.55;29.80;;;3.40;99.90;;;;;;5000792;28;20243;-86
2023/03/09 06:17:45;;;;;;;53.50;29.75;;;3.40;99.90;;;;;;5003438;28;20342;-88
2023/03/09 06:20:13;;;;;;;47.35;27.42;;;3.30;99.90;;;;;;5007747;28;20200;-88
2023/03/09 06:22:44;;;;;;;45.33;25.85;;;3.50;99.90;;;;;;5014671;28;20228;-87
2023/03/09 06:25:12;;;;;;;45.22;24.52;;;3.30;99.90;;;;;;5001323;28;20211;-88
2023/03/09 06:27:43;;;;;;;51.80;27.23;;;3.30;99.90;;;;;;5004600;28;20195;-86
2023/03/09 06:30:33;;;;;;;50.43;25.67;;;3.40;99.90;;;;;;5093468;27;1748333;-89
2023/03/09 06:33:00;;;;;;;38.67;21.42;;;3.40;99.90;;;;;;5152652;27;20209;-87
2023/03/09 06:35:31;;;;;;;41.35;23.48;;;3.30;99.90;;;;;;5121894;28;20196;-89
2023/03/09 06:38:04;;;;;;;43.03;25.10;;;3.40;99.90;;;;;;5104792;28;20196;-88
2023/03/09 06:40:43;;;;;;;34.45;22.70;;;3.20;99.90;;;;;;5149305;27;20258;-90
2023/03/09 06:43:29;;;;;;;;;;;;;;;;;;;;;
2023/03/09 06:46:12;;;;;;;40.67;24.20;;;3.30;99.90;;;;;;5150143;27;20206;-89
2023/03/09 06:51:18;;;;;;;44.97;24.77;;;3.20;99.90;;;;;;5100727;22;20249;-90
2023/03/09 06:53:48;;;;;;;48.85;22.90;;;3.20;99.90;;;;;;5052846;28;20198;-91
2023/03/09 06:56:19;;;;;;;49.40;27.20;;;3.30;99.90;;;;;;5062817;28;20214;-86
2023/03/09 06:58:49;;;;;;;38.13;23.23;;;3.20;99.90;;;;;;5044804;28;20198;-87
2023/03/09 07:01:18;;;;;;;47.55;27.70;;;3.30;99.90;;;;;;5061421;28;20408;-87
2023/03/09 07:03:52;;;;;;;45.88;25.73;;;3.30;99.90;;;;;;5060670;28;20266;-87
2023/03/09 07:06:19;;;;;;;43.75;25.67;;;3.30;99.90;;;;;;5064591;28;20635;-87
2023/03/09 07:08:48;;;;;;;48.33;27.13;;;3.30;99.90;;;;;;5064234;28;20218;-88
2023/03/09 07:11:20;;;;;;;44.75;25.08;;;3.40;99.90;;;;;;5288640;22;20200;-88
2023/03/09 07:13:50;;;;;;;44.33;22.20;;;3.30;99.90;;;;;;5030868;28;20201;-88
2023/03/09 07:16:22;;;;;;;36.05;22.40;;;3.20;99.90;;;;;;5049915;28;20207;-89
2023/03/09 07:18:51;;;;;;;34.22;21.25;;;3.20;99.90;;;;;;5049640;28;20297;-89
2023/03/09 07:21:21;;;;;;;37.58;21.98;;;3.30;99.90;;;;;;5031118;28;20186;-88
2023/03/09 07:24:02;;;;;;;27.95;19.08;;;3.30;99.90;;;;;;5048971;28;20210;-88
2023/03/09 07:26:29;;;;;;;33.80;21.70;;;3.10;99.90;;;;;;5045848;28;20241;-87
2023/03/09 07:28:57;;;;;;;39.97;22.17;;;3.10;99.90;;;;;;5053634;28;20214;-88
2023/03/09 07:31:28;;;;;;;38.70;24.75;;;3.10;99.90;;;;;;5071508;28;20198;-88
2023/03/09 07:33:57;;;;;;;33.90;21.67;;;3.20;99.90;;;;;;5067490;28;20213;-90
2023/03/09 07:36:25;;;;;;;30.15;19.90;;;3.10;99.90;;;;;;5427279;22;20233;-88
2023/03/09 07:38:53;;;;;;;27.25;17.88;;;3.20;99.90;;;;;;5064236;28;20528;-88
2023/03/09 07:41:23;;;;;;;26.08;16.20;;;3.00;99.90;;;;;;5053352;28;20199;-87
2023/03/09 07:43:50;;;;;;;32.58;18.02;;;3.00;99.90;;;;;;5051349;28;20500;-87
2023/03/09 07:46:18;;;;;;;28.98;17.63;;;3.00;99.90;;;;;;5144677;22;20306;-89
2023/03/09 07:48:46;;;;;;;29.20;19.70;;;3.00;99.90;;;;;;5037623;28;20627;-89
2023/03/09 07:51:15;;;;;;;32.28;19.35;;;2.90;99.90;;;;;;5053464;28;20534;-88
2023/03/09 07:53:45;;;;;;;35.25;21.45;;;3.10;99.90;;;;;;5254675;22;20242;-87
2023/03/09 07:56:15;;;;;;;33.17;20.73;;;3.20;99.90;;;;;;5073687;28;20196;-89
2023/03/09 08:01:15;;;;;;;34.45;17.88;;;3.30;99.90;;;;;;5380656;22;20222;-88
2023/03/09 08:03:55;;;;;;;29.83;18.40;;;3.30;99.90;;;;;;5171533;23;20218;-88
2023/03/09 08:06:25;;;;;;;26.60;17.88;;;3.30;99.90;;;;;;5505367;22;20262;-87
2023/03/09 08:08:53;;;;;;;27.60;17.55;;;3.20;99.90;;;;;;5141321;23;20221;-87
2023/03/09 08:11:28;;;;;;;28.33;17.00;;;3.10;99.90;;;;;;5400391;22;21632;-88
2023/03/09 08:16:37;;;;;;;25.50;16.77;;;3.30;99.90;;;;;;5183424;23;20239;-89
2023/03/09 08:19:05;;;;;;;25.13;15.00;;;3.30;99.90;;;;;;5029429;28;20580;-87
2023/03/09 08:21:32;;;;;;;27.05;16.00;;;3.20;99.90;;;;;;5008374;28;20250;-88
2023/03/09 08:26:46;;;;;;;24.95;15.57;;;3.10;99.90;;;;;;4971248;28;20201;-89
2023/03/09 08:29:13;;;;;;;19.73;14.95;;;3.40;99.90;;;;;;5287157;23;20223;-89
2023/03/09 08:37:05;;;;;;;19.25;13.77;;;3.20;99.90;;;;;;5387157;23;20219;-89
2023/03/09 08:39:32;;;;;;;19.02;14.10;;;3.20;99.90;;;;;;4990454;28;20214;-88
2023/03/09 08:41:59;;;;;;;18.52;13.07;;;3.20;99.90;;;;;;4999189;28;20245;-89
2023/03/09 08:44:27;;;;;;;21.10;13.43;;;3.30;99.90;;;;;;4997969;28;20235;-88
2023/03/09 08:46:55;;;;;;;18.75;12.80;;;3.40;99.90;;;;;;5003416;28;20212;-87
2023/03/09 08:49:22;;;;;;;16.65;12.13;;;3.40;99.90;;;;;;5005147;28;20227;-90
2023/03/09 08:51:50;;;;;;;15.88;12.40;;;3.40;99.90;;;;;;5264727;23;20219;-89
2023/03/09 08:54:17;;;;;;;15.80;11.95;;;3.40;99.90;;;;;;4959172;28;20293;-88
2023/03/09 08:56:44;;;;;;;16.58;13.57;;;3.30;99.90;;;;;;4958084;28;20215;-88
2023/03/09 08:59:11;;;;;;;14.15;11.82;;;3.40;99.90;;;;;;4989614;23;20282;-86
2023/03/09 09:01:38;;;;;;;16.38;10.75;;;3.30;99.90;;;;;;5077709;23;20503;-89
2023/03/09 09:04:07;;;;;;;18.48;12.40;;;3.50;99.90;;;;;;5090938;23;20528;-90
2023/03/09 09:09:05;;;;;;;18.45;12.48;;;3.40;99.90;;;;;;4986097;28;20216;-87
2023/03/09 09:14:08;;;;;;;16.58;12.95;;;3.50;99.90;;;;;;5024089;23;20253;-87
2023/03/09 09:16:35;;;;;;;16.88;13.52;;;3.50;99.90;;;;;;5013878;28;20426;-87
2023/03/09 09:19:02;;;;;;;18.80;13.50;;;3.70;99.90;;;;;;4983654;28;20201;-88
2023/03/09 09:21:30;;;;;;;17.08;12.50;;;3.80;99.90;;;;;;5077411;23;20311;-88
2023/03/09 09:23:58;;;;;;;14.68;10.77;;;3.90;99.90;;;;;;5022806;28;20279;-88
2023/03/09 09:26:25;;;;;;;15.98;11.20;;;3.70;99.90;;;;;;5008829;28;20221;-88
2023/03/09 09:28:52;;;;;;;15.80;12.45;;;3.70;99.90;;;;;;5018452;28;20218;-89
2023/03/09 09:31:23;;;;;;;17.92;11.90;;;3.90;99.90;;;;;;5016745;28;20208;-90
2023/03/09 09:33:50;;;;;;;17.55;12.48;;;4.00;99.90;;;;;;5063842;23;20271;-88
2023/03/09 09:36:18;;;;;;;17.58;12.82;;;4.00;99.90;;;;;;5021747;28;20235;-87
2023/03/09 09:38:47;;;;;;;19.15;12.98;;;4.00;99.90;;;;;;5002322;28;20258;-88
2023/03/09 09:41:23;;;;;;;18.13;12.68;;;4.00;99.90;;;;;;4992220;28;20268;-89
2023/03/09 09:43:54;;;;;;;15.93;11.93;;;4.10;99.90;;;;;;4996435;28;20205;-88
2023/03/09 09:46:22;;;;;;;17.27;11.88;;;4.10;99.90;;;;;;5001566;28;20201;-86
2023/03/09 09:48:50;;;;;;;15.77;12.73;;;4.20;99.90;;;;;;4994916;28;20209;-86
2023/03/09 09:51:42;;;;;;;14.95;11.85;;;4.30;99.90;;;;;;5001998;28;20208;-88
2023/03/09 09:54:27;;;;;;;15.35;10.90;;;4.40;99.90;;;;;;4986130;28;20195;-88
2023/03/09 09:57:02;;;;;;;13.85;11.50;;;4.40;99.90;;;;;;5003273;28;20198;-89
2023/03/09 09:59:33;;;;;;;13.73;11.85;;;4.40;99.90;;;;;;5000444;28;20311;-90
2023/03/09 10:02:10;;;;;;;15.23;11.25;;;4.40;99.90;;;;;;4997638;28;20213;-89
2023/03/09 10:04:44;;;;;;;15.23;11.48;;;4.30;99.90;;;;;;5001853;28;20201;-88
2023/03/09 10:07:20;;;;;;;11.80;10.45;;;4.40;99.90;;;;;;5007921;28;20204;-89
2023/03/09 10:09:56;;;;;;;12.10;9.57;;;4.40;99.90;;;;;;5000426;28;20229;-89
2023/03/09 10:12:24;;;;;;;12.93;10.93;;;4.20;99.90;;;;;;4992310;28;20225;-88
2023/03/09 10:15:05;;;;;;;13.20;11.32;;;4.10;99.90;;;;;;5000533;28;20236;-89
2023/03/09 10:17:55;;;;;;;13.25;10.75;;;4.10;99.90;;;;;;5009074;28;20217;-88
2023/03/09 10:20:29;;;;;;;16.00;11.50;;;4.00;99.90;;;;;;5009922;28;20242;-87
2023/03/09 10:22:57;;;;;;;16.20;11.15;;;4.10;99.90;;;;;;5003711;28;20250;-89
2023/03/09 10:25:26;;;;;;;17.83;12.75;;;4.00;99.90;;;;;;4993783;28;20213;-88
2023/03/09 10:27:55;;;;;;;18.38;13.50;;;4.00;99.90;;;;;;5005224;28;20224;-89
2023/03/09 10:30:42;;;;;;;14.23;11.15;;;4.00;99.90;;;;;;4996929;28;20290;-90
2023/03/09 10:33:19;;;;;;;16.10;12.18;;;4.10;99.90;;;;;;5017834;28;20229;-89
2023/03/09 10:36:01;;;;;;;13.45;11.15;;;4.20;99.90;;;;;;5010632;28;20208;-89
2023/03/09 10:38:29;;;;;;;13.85;11.65;;;4.30;99.90;;;;;;5019787;28;20291;-91
2023/03/09 10:41:03;;;;;;;15.85;11.13;;;4.20;99.90;;;;;;5009670;28;20224;-90
2023/03/09 10:43:40;;;;;;;16.45;12.15;;;4.20;99.90;;;;;;5016694;28;20208;-89
2023/03/09 10:46:21;;;;;;;14.23;11.57;;;4.10;99.90;;;;;;5001334;28;20256;-90
2023/03/09 10:49:10;;;;;;;16.10;11.30;;;4.20;99.90;;;;;;5008922;28;20247;-89
2023/03/09 10:51:53;;;;;;;15.48;12.90;;;4.30;99.90;;;;;;4997484;28;20487;-90
2023/03/09 10:54:30;;;;;;;15.98;10.75;;;4.30;99.90;;;;;;5005385;28;20223;-88
2023/03/09 10:56:58;;;;;;;16.83;12.55;;;4.40;99.90;;;;;;5052957;23;20236;-88
2023/03/09 10:59:29;;;;;;;16.45;10.77;;;4.20;99.90;;;;;;4974761;28;20214;-91
2023/03/09 11:02:00;;;;;;;14.57;10.15;;;4.20;99.90;;;;;;4958214;28;20225;-91
2023/03/09 11:04:35;;;;;;;14.40;11.65;;;4.20;99.90;;;;;;4986303;28;20211;-91
2023/03/09 11:07:31;;;;;;;15.25;12.02;;;4.40;99.90;;;;;;4991598;28;20219;-87
2023/03/09 11:10:03;;;;;;;12.38;9.70;;;4.30;99.90;;;;;;4966004;28;20240;-89
2023/03/09 11:12:48;;;;;;;14.45;10.63;;;4.20;99.90;;;;;;5298681;23;20248;-90
2023/03/09 11:15:16;;;;;;;13.70;10.27;;;4.20;99.90;;;;;;5006287;28;20479;-88
2023/03/09 11:17:46;;;;;;;13.80;11.02;;;4.20;99.90;;;;;;5015219;28;20216;-88
2023/03/09 11:20:41;;;;;;;13.60;11.93;;;4.30;99.90;;;;;;5600684;23;20216;-88
2023/03/09 11:45:03;;;;;;;10.77;9.57;;;5.00;99.90;;;;;;5601668;22;20237;-87
2023/03/09 11:55:35;;;;;;;13.52;9.90;;;5.00;99.90;;;;;;4991290;28;20290;-87
2023/03/09 11:58:08;;;;;;;10.77;8.27;;;5.00;99.90;;;;;;5816525;23;21619;-88
2023/03/09 12:06:11;;;;;;;11.07;7.78;;;4.90;99.90;;;;;;5384736;23;20265;-87
2023/03/09 13:05:28;;;;;;;17.95;10.73;;;5.30;99.90;;;;;;5698966;23;20544;-86
2023/03/09 13:13:41;;;;;;;14.85;10.55;;;5.50;99.90;;;;;;5549776;23;20436;-87
2023/03/09 13:16:27;;;;;;;17.17;11.63;;;5.60;99.90;;;;;;5014977;28;20178;-85
2023/03/09 13:19:19;;;;;;;12.88;8.95;;;5.50;99.90;;;;;;5146373;23;20230;-87
2023/03/09 13:27:20;;;;;;;12.70;10.07;;;5.70;99.90;;;;;;5083971;22;20210;-86
2023/03/09 13:32:46;;;;;;;12.10;10.10;;;5.70;99.90;;;;;;5381768;22;20424;-86
2023/03/09 13:37:52;;;;;;;13.98;9.10;;;5.90;99.90;;;;;;5240016;23;20247;-86
2023/03/09 13:40:30;;;;;;;13.18;9.63;;;6.00;99.90;;;;;;5022067;28;20297;-84
2023/03/09 13:42:59;;;;;;;18.15;11.30;;;6.50;99.90;;;;;;5025853;28;20204;-84
2023/03/09 13:45:30;;;;;;;12.38;9.73;;;7.00;99.90;;;;;;5022005;28;20219;-84
2023/03/09 13:48:01;;;;;;;9.65;7.95;;;7.00;99.90;;;;;;5414926;22;20217;-82
2023/03/09 13:50:32;;;;;;;13.23;9.32;;;6.60;99.90;;;;;;5564319;22;20226;-84
2023/03/09 13:58:58;;;;;;;14.93;8.93;;;6.80;99.90;;;;;;5493402;22;20320;-82
2023/03/09 14:04:01;;;;;;;14.52;10.57;;;6.50;99.90;;;;;;5226141;23;20231;-84
2023/03/09 14:06:31;;;;;;;12.35;9.65;;;6.50;99.90;;;;;;5389535;22;20219;-84
2023/03/09 14:09:35;;;;;;;11.68;10.25;;;6.50;99.90;;;;;;5005805;28;20189;-84
2023/03/09 14:12:03;;;;;;;13.07;10.75;;;6.50;99.90;;;;;;5608118;22;20234;-83
2023/03/09 14:14:33;;;;;;;12.95;9.68;;;6.40;99.90;;;;;;5197447;22;20291;-86
2023/03/09 14:17:01;;;;;;;11.10;9.55;;;6.40;99.90;;;;;;5270210;22;20557;-88
2023/03/09 14:19:30;;;;;;;10.35;8.65;;;6.60;99.90;;;;;;4965385;28;20201;-86
2023/03/09 14:21:59;;;;;;;12.52;9.23;;;6.50;99.90;;;;;;4971783;28;20203;-87
2023/03/09 14:24:34;;;;;;;13.80;9.93;;;6.10;99.90;;;;;;4978074;28;20223;-86
2023/03/09 14:27:12;;;;;;;12.35;9.93;;;6.10;99.90;;;;;;4977315;28;20198;-87
2023/03/09 14:29:40;;;;;;;12.02;9.50;;;6.10;99.90;;;;;;4979783;28;20202;-86
2023/03/09 14:32:27;;;;;;;12.80;10.13;;;6.10;99.90;;;;;;4970301;28;20266;-87
2023/03/09 14:34:56;;;;;;;13.48;10.25;;;6.10;99.90;;;;;;4986198;28;20283;-87
2023/03/09 14:37:25;;;;;;;13.80;9.20;;;6.00;99.90;;;;;;4987234;28;20233;-86
2023/03/09 14:39:53;;;;;;;13.60;8.75;;;6.00;99.90;;;;;;4984746;28;20210;-86
2023/03/09 14:42:31;;;;;;;13.48;9.82;;;6.00;99.90;;;;;;4970815;28;20504;-87
2023/03/09 14:45:15;;;;;;;12.25;8.40;;;6.00;99.90;;;;;;4982799;28;20213;-86
2023/03/09 14:47:42;;;;;;;10.88;8.77;;;6.20;99.90;;;;;;4970458;28;20203;-85
2023/03/09 14:50:16;;;;;;;11.98;8.75;;;6.20;99.90;;;;;;4971187;28;20236;-85
2023/03/09 14:52:44;;;;;;;12.27;8.80;;;6.10;99.90;;;;;;4979838;28;20199;-86
2023/03/09 14:55:19;;;;;;;13.32;9.70;;;6.10;99.90;;;;;;4973124;28;20203;-84
2023/03/09 14:57:47;;;;;;;13.65;9.73;;;6.10;99.90;;;;;;4972785;28;20207;-86
2023/03/09 15:00:23;;;;;;;12.45;9.77;;;5.80;99.90;;;;;;4994074;28;20216;-84
2023/03/09 15:02:52;;;;;;;14.57;9.02;;;5.70;99.90;;;;;;4990734;28;20202;-86
2023/03/09 15:05:24;;;;;;;11.43;9.18;;;5.70;99.90;;;;;;4984573;28;20210;-84
2023/03/09 15:07:52;;;;;;;13.60;9.13;;;5.70;99.90;;;;;;4989102;28;20217;-85
2023/03/09 15:10:20;;;;;;;8.90;7.43;;;5.80;99.90;;;;;;4980395;28;20222;-83
2023/03/09 15:12:47;;;;;;;11.75;8.30;;;5.90;99.90;;;;;;4984625;28;20199;-82
2023/03/09 15:15:23;;;;;;;13.45;9.50;;;5.90;99.90;;;;;;4986689;28;20214;-82
2023/03/09 15:17:53;;;;;;;11.68;9.45;;;6.10;99.90;;;;;;4983996;28;20266;-85
2023/03/09 15:20:24;;;;;;;13.00;10.25;;;5.90;99.90;;;;;;4970856;28;20213;-85
2023/03/09 15:23:06;;;;;;;11.50;8.55;;;5.80;99.90;;;;;;4986969;28;20260;-86
2023/03/09 15:25:33;;;;;;;12.63;9.70;;;5.70;99.90;;;;;;4987453;28;20211;-82
2023/03/09 15:28:00;;;;;;;14.27;11.25;;;5.70;99.90;;;;;;4992180;28;20233;-87
2023/03/09 15:30:27;;;;;;;11.73;8.80;;;5.60;99.90;;;;;;4987328;28;20297;-88
2023/03/09 15:32:54;;;;;;;16.98;11.93;;;5.70;99.90;;;;;;4974712;28;20405;-86
2023/03/09 15:35:22;;;;;;;14.60;9.57;;;5.80;99.90;;;;;;4979673;28;20235;-85
2023/03/09 15:37:49;;;;;;;18.27;11.23;;;5.90;99.90;;;;;;4979436;28;20219;-85
2023/03/09 15:40:17;;;;;;;16.52;11.77;;;6.10;99.90;;;;;;4974728;28;20270;-86
2023/03/09 15:42:45;;;;;;;14.57;11.15;;;6.10;99.90;;;;;;4994348;28;20226;-85
2023/03/09 15:45:14;;;;;;;11.57;9.57;;;5.90;99.90;;;;;;4982915;28;20210;-83
2023/03/09 15:47:41;;;;;;;17.00;12.23;;;5.90;99.90;;;;;;4985763;28;20197;-85
2023/03/09 15:50:10;;;;;;;15.13;11.70;;;5.90;99.90;;;;;;4985147;28;20281;-86
2023/03/09 15:52:38;;;;;;;11.55;8.98;;;5.80;99.90;;;;;;4986960;28;20220;-85
2023/03/09 15:55:05;;;;;;;13.43;10.57;;;5.60;99.90;;;;;;4979158;28;20559;-86
2023/03/09 15:57:32;;;;;;;19.75;12.93;;;5.50;99.90;;;;;;4981646;28;20262;-85
2023/03/09 16:00:00;;;;;;;16.00;13.07;;;5.50;99.90;;;;;;4982469;28;20206;-86
2023/03/09 16:02:27;;;;;;;19.85;14.15;;;5.40;99.90;;;;;;4985073;28;20206;-87
2023/03/09 16:04:54;;;;;;;15.88;12.27;;;5.00;99.90;;;;;;4982291;28;20256;-88
2023/03/09 16:07:21;;;;;;;17.45;13.50;;;5.00;99.90;;;;;;4983417;28;20206;-85
2023/03/09 16:09:48;;;;;;;19.45;13.88;;;5.10;99.90;;;;;;4976907;28;20234;-87
2023/03/09 16:12:15;;;;;;;24.48;15.27;;;5.00;99.90;;;;;;4978534;28;20211;-84
2023/03/09 16:14:42;;;;;;;17.13;13.07;;;4.80;99.90;;;;;;4967959;28;20294;-85
2023/03/09 16:17:12;;;;;;;19.65;13.05;;;4.80;99.90;;;;;;4977507;28;20240;-84
2023/03/09 16:19:39;;;;;;;17.80;14.15;;;4.70;99.90;;;;;;4977971;28;20241;-88
2023/03/09 16:22:06;;;;;;;20.88;14.60;;;5.00;99.90;;;;;;4985195;28;20523;-88
2023/03/09 16:24:36;;;;;;;18.83;14.43;;;5.20;99.90;;;;;;4985381;28;20208;-85
2023/03/09 16:27:03;;;;;;;17.60;13.70;;;5.10;99.90;;;;;;4986302;28;20267;-87
2023/03/09 16:29:31;;;;;;;17.10;13.07;;;4.80;99.90;;;;;;4973343;28;20242;-87
2023/03/09 16:31:58;;;;;;;21.17;15.30;;;4.60;99.90;;;;;;4982870;28;20258;-88
2023/03/09 16:34:33;;;;;;;22.77;15.88;;;4.70;99.90;;;;;;4983550;28;20478;-86
2023/03/09 16:37:04;;;;;;;19.80;14.38;;;5.10;99.90;;;;;;4988830;28;20244;-83
2023/03/09 16:39:31;;;;;;;21.85;14.15;;;5.00;99.90;;;;;;4982932;28;20204;-85
2023/03/09 16:41:58;;;;;;;23.10;15.30;;;4.80;99.90;;;;;;4973507;28;20203;-85
2023/03/09 16:44:25;;;;;;;20.63;13.90;;;4.90;99.90;;;;;;4987754;28;20208;-85
2023/03/09 16:46:53;;;;;;;21.10;15.23;;;4.90;99.90;;;;;;4979899;28;20269;-80
2023/03/09 16:49:20;;;;;;;20.35;14.48;;;5.20;99.90;;;;;;4976844;28;20484;-86
2023/03/09 16:51:47;;;;;;;21.98;15.30;;;5.20;99.90;;;;;;4986285;28;20211;-83
2023/03/09 16:54:14;;;;;;;19.63;12.88;;;5.10;99.90;;;;;;4986970;28;20269;-86
2023/03/09 16:56:41;;;;;;;22.00;16.42;;;5.30;99.90;;;;;;4973229;28;20227;-86
2023/03/09 16:59:08;;;;;;;20.55;14.25;;;5.10;99.90;;;;;;4983509;28;20225;-85
2023/03/09 17:01:35;;;;;;;19.98;15.00;;;5.00;99.90;;;;;;4969603;28;20550;-88
2023/03/09 17:04:05;;;;;;;19.42;14.30;;;5.10;99.90;;;;;;4979486;28;20206;-86
2023/03/09 17:06:32;;;;;;;21.63;14.63;;;5.30;99.90;;;;;;4976849;28;20225;-86
2023/03/09 17:09:00;;;;;;;18.67;14.10;;;5.40;99.90;;;;;;4972207;28;20214;-85
2023/03/09 17:11:27;;;;;;;19.80;14.98;;;5.40;99.90;;;;;;4972824;28;20239;-84
2023/03/09 17:13:54;;;;;;;21.92;15.20;;;5.20;99.90;;;;;;4971479;28;20205;-85
2023/03/09 17:16:22;;;;;;;21.40;15.75;;;5.20;99.90;;;;;;4972388;28;20274;-86
2023/03/09 17:18:53;;;;;;;28.35;16.80;;;5.40;99.90;;;;;;4978431;28;20214;-83
2023/03/09 17:21:20;;;;;;;24.92;18.15;;;5.60;99.90;;;;;;4977911;28;20206;-85
2023/03/09 17:23:48;;;;;;;21.50;14.93;;;5.30;99.90;;;;;;4978255;28;20210;-85
2023/03/09 17:26:15;;;;;;;19.58;13.70;;;5.60;99.90;;;;;;4977763;28;20219;-88
2023/03/09 17:28:42;;;;;;;21.25;15.07;;;5.50;99.90;;;;;;4984336;28;20198;-83
2023/03/09 17:31:14;;;;;;;15.68;12.80;;;5.20;99.90;;;;;;4973698;28;20245;-82
2023/03/09 17:33:42;;;;;;;18.80;13.82;;;5.20;99.90;;;;;;4972429;28;20458;-82
2023/03/09 17:36:10;;;;;;;19.58;12.70;;;5.20;99.90;;;;;;4977891;28;20234;-84
2023/03/09 17:38:37;;;;;;;21.33;15.25;;;5.40;99.90;;;;;;4978485;28;20278;-86
2023/03/09 17:41:07;;;;;;;19.58;14.93;;;5.60;99.90;;;;;;4980656;28;20383;-83
2023/03/09 17:43:35;;;;;;;21.13;14.45;;;5.90;99.90;;;;;;4985411;28;20513;-82
2023/03/09 17:46:27;;;;;;;20.55;14.48;;;5.90;99.90;;;;;;5050894;23;20240;-83
2023/03/09 17:48:54;;;;;;;20.48;15.65;;;6.00;99.90;;;;;;4998548;28;20193;-81
2023/03/09 17:51:21;;;;;;;22.65;16.23;;;6.20;99.90;;;;;;5002370;28;20497;-84
2023/03/09 17:53:49;;;;;;;28.08;15.80;;;5.90;99.90;;;;;;4992144;28;20265;-86
2023/03/09 17:56:18;;;;;;;18.48;14.15;;;5.50;99.90;;;;;;4997748;28;20256;-85
2023/03/09 17:58:45;;;;;;;20.92;13.90;;;5.20;99.90;;;;;;4998952;28;20215;-86
2023/03/09 18:01:17;;;;;;;24.23;16.55;;;5.10;99.90;;;;;;4991651;28;20401;-86
2023/03/09 18:03:44;;;;;;;20.58;15.93;;;5.10;99.90;;;;;;4986415;28;20276;-84
2023/03/09 18:06:23;;;;;;;26.42;16.23;;;4.90;99.90;;;;;;4994853;28;20251;-85
2023/03/09 18:08:51;;;;;;;23.45;15.13;;;4.90;99.90;;;;;;4992574;28;20435;-84
2023/03/09 18:11:21;;;;;;;21.70;17.23;;;4.90;99.90;;;;;;4992869;28;20253;-86
2023/03/09 18:13:52;;;;;;;18.65;16.23;;;4.90;99.90;;;;;;4997838;28;20548;-85
2023/03/09 18:16:20;;;;;;;27.63;17.67;;;4.90;99.90;;;;;;4992605;28;20507;-86
2023/03/09 18:18:49;;;;;;;22.27;16.35;;;4.90;99.90;;;;;;5004186;28;20252;-87
2023/03/09 18:21:16;;;;;;;25.95;17.63;;;5.00;99.90;;;;;;4992265;28;20266;-85
2023/03/09 18:23:44;;;;;;;23.73;16.30;;;5.10;99.90;;;;;;4995040;28;20201;-84